sensor_id;sensor_type;location;lat;lon;timestamp;temperature;humidity
14057;DHT22;7103;54.300;10.180;2023-06-04T00:02:06;10.50;1.00
14057;DHT22;7103;54.300;10.180;2023-06-04T00:04:33;10.40;1.00
14057;DHT22;7103;54.300;10.180;2023-06-04T00:07:00;10.50;1.00
14057;DHT22;7103;54.300;10.180;2023-06-04T00:09:27;10.50;1.00
14057;DHT22;7103;54.300;10.180;2023-06-04T00:11:55;10.40;1.00
14057;DHT22;7103;54.300;10.180;2023-06-04T00:14:22;10.40;1.00
14057;DHT22;7103;54.300;10.180;2023-06-04T00:16:49;10.40;1.00
14057;DHT22;7103;54.300;10.180;2023-06-04T00:19:16;10.30;1.00
14057;DHT22;7103;54.300;10.180;2023-06-04T00:21:44;10.30;1.00
14057;DHT22;7103;54.300;10.180;2023-06-04T00:24:11;10.40;1.00
14057;DHT22;7103;54.300;10.180;2023-06-04T00:26:40;10.40;1.00
14057;DHT22;7103;54.300;10.180;2023-06-04T00:29:06;10.40;1.00
14057;DHT22;7103;54.300;10.180;2023-06-04T00:31:33;10.40;1.00
14057;DHT22;7103;54.300;10.180;2023-06-04T00:34:01;10.40;1.00
14057;DHT22;7103;54.300;10.180;2023-06-04T00:36:28;10.40;1.00
14057;DHT22;7103;54.300;10.180;2023-06-04T00:38:54;10.40;1.00
14057;DHT22;7103;54.300;10.180;2023-06-04T00:41:21;10.30;1.00
14057;DHT22;7103;54.300;10.180;2023-06-04T00:43:48;10.30;1.00
14057;DHT22;7103;54.300;10.180;2023-06-04T00:46:24;10.20;1.00
14057;DHT22;7103;54.300;10.180;2023-06-04T00:48:53;10.20;1.00
14057;DHT22;7103;54.300;10.180;2023-06-04T00:51:21;10.20;1.00
14057;DHT22;7103;54.300;10.180;2023-06-04T00:53:50;10.20;1.00
14057;DHT22;7103;54.300;10.180;2023-06-04T00:56:17;10.20;1.00
14057;DHT22;7103;54.300;10.180;2023-06-04T00:58:45;10.10;1.00
14057;DHT22;7103;54.300;10.180;2023-06-04T01:01:54;10.10;1.00
14057;DHT22;7103;54.300;10.180;2023-06-04T01:04:37;10.00;1.00
14057;DHT22;7103;54.300;10.180;2023-06-04T01:07:09;10.00;1.00
14057;DHT22;7103;54.300;10.180;2023-06-04T01:09:36;10.10;1.00
14057;DHT22;7103;54.300;10.180;2023-06-04T01:12:05;10.00;1.00
14057;DHT22;7103;54.300;10.180;2023-06-04T01:14:32;10.10;1.00
14057;DHT22;7103;54.300;10.180;2023-06-04T01:25:24;9.80;1.00
14057;DHT22;7103;54.300;10.180;2023-06-04T01:27:55;9.80;1.00
14057;DHT22;7103;54.300;10.180;2023-06-04T01:30:32;9.90;1.00
14057;DHT22;7103;54.300;10.180;2023-06-04T01:33:01;9.80;1.00
14057;DHT22;7103;54.300;10.180;2023-06-04T01:35:29;9.70;1.00
14057;DHT22;7103;54.300;10.180;2023-06-04T01:37:58;9.70;1.00
14057;DHT22;7103;54.300;10.180;2023-06-04T01:40:25;9.80;1.00
14057;DHT22;7103;54.300;10.180;2023-06-04T01:42:53;9.80;1.00
14057;DHT22;7103;54.300;10.180;2023-06-04T01:45:24;9.80;1.00
14057;DHT22;7103;54.300;10.180;2023-06-04T01:47:52;9.70;1.00
14057;DHT22;7103;54.300;10.180;2023-06-04T01:50:19;9.60;1.00
14057;DHT22;7103;54.300;10.180;2023-06-04T01:52:46;9.80;1.00
14057;DHT22;7103;54.300;10.180;2023-06-04T01:55:14;9.70;1.00
14057;DHT22;7103;54.300;10.180;2023-06-04T01:57:44;9.70;1.00
14057;DHT22;7103;54.300;10.180;2023-06-04T02:00:12;9.60;1.00
14057;DHT22;7103;54.300;10.180;2023-06-04T02:02:40;9.50;1.00
14057;DHT22;7103;54.300;10.180;2023-06-04T02:05:09;9.50;1.00
14057;DHT22;7103;54.300;10.180;2023-06-04T02:07:38;9.40;1.00
14057;DHT22;7103;54.300;10.180;2023-06-04T02:10:09;9.40;1.00
14057;DHT22;7103;54.300;10.180;2023-06-04T02:12:38;9.40;1.00
14057;DHT22;7103;54.300;10.180;2023-06-04T02:15:06;9.40;1.00
14057;DHT22;7103;54.300;10.180;2023-06-04T02:17:34;9.30;1.00
14057;DHT22;7103;54.300;10.180;2023-06-04T02:20:04;9.30;1.00
14057;DHT22;7103;54.300;10.180;2023-06-04T02:22:32;9.30;1.00
14057;DHT22;7103;54.300;10.180;2023-06-04T02:24:59;9.20;1.00
14057;DHT22;7103;54.300;10.180;2023-06-04T02:27:26;9.20;1.00
14057;DHT22;7103;54.300;10.180;2023-06-04T02:29:54;9.20;1.00
14057;DHT22;7103;54.300;10.180;2023-06-04T02:32:21;9.20;1.00
14057;DHT22;7103;54.300;10.180;2023-06-04T02:34:48;9.10;1.00
14057;DHT22;7103;54.300;10.180;2023-06-04T02:37:15;9.10;1.00
14057;DHT22;7103;54.300;10.180;2023-06-04T02:39:42;9.10;1.00
14057;DHT22;7103;54.300;10.180;2023-06-04T02:42:09;9.00;1.00
14057;DHT22;7103;54.300;10.180;2023-06-04T02:44:36;9.00;1.00
14057;DHT22;7103;54.300;10.180;2023-06-04T02:47:03;9.10;1.00
14057;DHT22;7103;54.300;10.180;2023-06-04T02:49:30;9.10;1.00
14057;DHT22;7103;54.300;10.180;2023-06-04T02:51:57;9.10;1.00
14057;DHT22;7103;54.300;10.180;2023-06-04T02:54:24;9.10;1.00
14057;DHT22;7103;54.300;10.180;2023-06-04T02:56:51;9.10;1.00
14057;DHT22;7103;54.300;10.180;2023-06-04T02:59:19;9.10;1.00
14057;DHT22;7103;54.300;10.180;2023-06-04T03:01:46;9.20;1.00
14057;DHT22;7103;54.300;10.180;2023-06-04T03:04:13;9.40;1.00
14057;DHT22;7103;54.300;10.180;2023-06-04T03:06:42;9.40;1.00
14057;DHT22;7103;54.300;10.180;2023-06-04T03:09:13;9.50;1.00
14057;DHT22;7103;54.300;10.180;2023-06-04T03:11:40;9.50;1.00
14057;DHT22;7103;54.300;10.180;2023-06-04T03:14:07;9.40;1.00
14057;DHT22;7103;54.300;10.180;2023-06-04T03:16:34;9.30;1.00
14057;DHT22;7103;54.300;10.180;2023-06-04T03:19:01;9.20;1.00
14057;DHT22;7103;54.300;10.180;2023-06-04T03:21:28;9.20;1.00
14057;DHT22;7103;54.300;10.180;2023-06-04T03:23:57;9.20;1.00
14057;DHT22;7103;54.300;10.180;2023-06-04T03:26:24;9.10;1.00
14057;DHT22;7103;54.300;10.180;2023-06-04T03:28:51;9.20;1.00
14057;DHT22;7103;54.300;10.180;2023-06-04T03:31:18;9.20;1.00
14057;DHT22;7103;54.300;10.180;2023-06-04T03:33:45;9.20;1.00
14057;DHT22;7103;54.300;10.180;2023-06-04T03:36:12;9.30;1.00
14057;DHT22;7103;54.300;10.180;2023-06-04T03:38:39;9.40;1.00
14057;DHT22;7103;54.300;10.180;2023-06-04T03:41:05;9.40;1.00
14057;DHT22;7103;54.300;10.180;2023-06-04T03:43:33;9.40;1.00
14057;DHT22;7103;54.300;10.180;2023-06-04T03:46:00;9.50;1.00
14057;DHT22;7103;54.300;10.180;2023-06-04T03:48:27;9.60;1.00
14057;DHT22;7103;54.300;10.180;2023-06-04T03:50:53;9.70;1.00
14057;DHT22;7103;54.300;10.180;2023-06-04T03:53:20;9.70;1.00
14057;DHT22;7103;54.300;10.180;2023-06-04T03:55:47;9.80;1.00
14057;DHT22;7103;54.300;10.180;2023-06-04T03:58:14;9.80;1.00
14057;DHT22;7103;54.300;10.180;2023-06-04T04:00:41;9.80;1.00
14057;DHT22;7103;54.300;10.180;2023-06-04T04:03:08;9.80;1.00
14057;DHT22;7103;54.300;10.180;2023-06-04T04:05:37;9.80;1.00
14057;DHT22;7103;54.300;10.180;2023-06-04T04:08:04;9.80;1.00
14057;DHT22;7103;54.300;10.180;2023-06-04T04:10:32;9.90;1.00
14057;DHT22;7103;54.300;10.180;2023-06-04T04:12:59;9.90;1.00
14057;DHT22;7103;54.300;10.180;2023-06-04T04:15:27;9.90;1.00
14057;DHT22;7103;54.300;10.180;2023-06-04T04:17:55;10.00;1.00
14057;DHT22;7103;54.300;10.180;2023-06-04T04:20:22;9.90;1.00
14057;DHT22;7103;54.300;10.180;2023-06-04T04:22:49;10.20;1.00
14057;DHT22;7103;54.300;10.180;2023-06-04T04:25:17;10.70;1.00
14057;DHT22;7103;54.300;10.180;2023-06-04T04:30:11;11.80;1.00
14057;DHT22;7103;54.300;10.180;2023-06-04T04:32:41;11.90;1.00
14057;DHT22;7103;54.300;10.180;2023-06-04T04:35:15;11.90;1.00
14057;DHT22;7103;54.300;10.180;2023-06-04T04:37:45;11.60;1.00
14057;DHT22;7103;54.300;10.180;2023-06-04T04:40:12;11.50;1.00
14057;DHT22;7103;54.300;10.180;2023-06-04T04:42:41;11.30;1.00
14057;DHT22;7103;54.300;10.180;2023-06-04T04:45:09;11.20;1.00
14057;DHT22;7103;54.300;10.180;2023-06-04T04:47:36;11.20;1.00
14057;DHT22;7103;54.300;10.180;2023-06-04T04:50:04;11.10;1.00
14057;DHT22;7103;54.300;10.180;2023-06-04T04:52:31;11.20;1.00
14057;DHT22;7103;54.300;10.180;2023-06-04T04:54:58;11.10;1.00
14057;DHT22;7103;54.300;10.180;2023-06-04T04:57:25;11.10;1.00
14057;DHT22;7103;54.300;10.180;2023-06-04T04:59:52;11.10;1.00
14057;DHT22;7103;54.300;10.180;2023-06-04T05:02:19;11.20;1.00
14057;DHT22;7103;54.300;10.180;2023-06-04T05:04:46;11.20;1.00
14057;DHT22;7103;54.300;10.180;2023-06-04T05:07:13;11.30;1.00
14057;DHT22;7103;54.300;10.180;2023-06-04T05:09:40;11.50;1.00
14057;DHT22;7103;54.300;10.180;2023-06-04T05:12:07;11.50;1.00
14057;DHT22;7103;54.300;10.180;2023-06-04T05:14:35;11.70;1.00
14057;DHT22;7103;54.300;10.180;2023-06-04T05:17:03;11.90;1.00
14057;DHT22;7103;54.300;10.180;2023-06-04T05:19:30;12.00;1.00
14057;DHT22;7103;54.300;10.180;2023-06-04T05:21:59;12.10;1.00
14057;DHT22;7103;54.300;10.180;2023-06-04T05:24:27;12.20;1.00
14057;DHT22;7103;54.300;10.180;2023-06-04T05:29:24;12.20;1.00
14057;DHT22;7103;54.300;10.180;2023-06-04T05:31:51;12.40;1.00
14057;DHT22;7103;54.300;10.180;2023-06-04T05:34:18;12.60;1.00
14057;DHT22;7103;54.300;10.180;2023-06-04T05:36:45;13.00;1.00
14057;DHT22;7103;54.300;10.180;2023-06-04T05:39:12;13.60;1.00
14057;DHT22;7103;54.300;10.180;2023-06-04T05:41:39;14.20;1.00
14057;DHT22;7103;54.300;10.180;2023-06-04T05:44:07;14.90;1.00
14057;DHT22;7103;54.300;10.180;2023-06-04T05:46:34;15.40;1.00
14057;DHT22;7103;54.300;10.180;2023-06-04T05:49:01;15.80;1.00
14057;DHT22;7103;54.300;10.180;2023-06-04T05:51:28;16.10;1.00
14057;DHT22;7103;54.300;10.180;2023-06-04T05:53:55;16.40;1.00
14057;DHT22;7103;54.300;10.180;2023-06-04T05:56:22;16.80;1.00
14057;DHT22;7103;54.300;10.180;2023-06-04T05:58:52;17.00;1.00
14057;DHT22;7103;54.300;10.180;2023-06-04T06:01:20;17.40;99.90
14057;DHT22;7103;54.300;10.180;2023-06-04T06:03:47;17.80;99.90
14057;DHT22;7103;54.300;10.180;2023-06-04T06:06:14;18.00;99.90
14057;DHT22;7103;54.300;10.180;2023-06-04T06:08:41;18.00;99.90
14057;DHT22;7103;54.300;10.180;2023-06-04T06:11:08;18.60;99.90
14057;DHT22;7103;54.300;10.180;2023-06-04T06:13:37;18.50;99.90
14057;DHT22;7103;54.300;10.180;2023-06-04T06:16:04;18.70;99.90
14057;DHT22;7103;54.300;10.180;2023-06-04T06:18:31;18.70;99.90
14057;DHT22;7103;54.300;10.180;2023-06-04T06:20:59;18.90;99.90
14057;DHT22;7103;54.300;10.180;2023-06-04T06:23:26;19.30;99.90
14057;DHT22;7103;54.300;10.180;2023-06-04T06:25:53;19.70;99.90
14057;DHT22;7103;54.300;10.180;2023-06-04T06:28:20;19.60;99.90
14057;DHT22;7103;54.300;10.180;2023-06-04T06:30:48;19.60;99.90
14057;DHT22;7103;54.300;10.180;2023-06-04T06:33:15;20.00;99.90
14057;DHT22;7103;54.300;10.180;2023-06-04T06:35:43;20.10;99.90
14057;DHT22;7103;54.300;10.180;2023-06-04T06:38:13;20.30;99.90
14057;DHT22;7103;54.300;10.180;2023-06-04T06:40:43;20.50;99.90
14057;DHT22;7103;54.300;10.180;2023-06-04T06:43:10;20.60;99.90
14057;DHT22;7103;54.300;10.180;2023-06-04T06:45:37;20.80;99.90
14057;DHT22;7103;54.300;10.180;2023-06-04T06:48:04;20.90;99.90
14057;DHT22;7103;54.300;10.180;2023-06-04T06:50:31;21.00;99.90
14057;DHT22;7103;54.300;10.180;2023-06-04T06:53:00;21.30;99.90
14057;DHT22;7103;54.300;10.180;2023-06-04T06:55:26;21.10;99.90
14057;DHT22;7103;54.300;10.180;2023-06-04T06:57:53;21.40;99.90
14057;DHT22;7103;54.300;10.180;2023-06-04T07:00:23;21.40;99.90
14057;DHT22;7103;54.300;10.180;2023-06-04T07:02:50;21.60;99.90
14057;DHT22;7103;54.300;10.180;2023-06-04T07:05:18;22.00;99.90
14057;DHT22;7103;54.300;10.180;2023-06-04T07:07:45;21.90;99.90
14057;DHT22;7103;54.300;10.180;2023-06-04T07:10:13;21.50;99.90
14057;DHT22;7103;54.300;10.180;2023-06-04T07:12:40;21.80;99.90
14057;DHT22;7103;54.300;10.180;2023-06-04T07:15:09;21.40;99.90
14057;DHT22;7103;54.300;10.180;2023-06-04T07:17:36;20.70;99.90
14057;DHT22;7103;54.300;10.180;2023-06-04T07:20:04;21.20;99.90
14057;DHT22;7103;54.300;10.180;2023-06-04T07:22:34;22.00;99.90
14057;DHT22;7103;54.300;10.180;2023-06-04T07:25:01;22.50;99.90
14057;DHT22;7103;54.300;10.180;2023-06-04T07:27:28;22.20;99.90
14057;DHT22;7103;54.300;10.180;2023-06-04T07:29:55;21.80;99.90
14057;DHT22;7103;54.300;10.180;2023-06-04T07:32:22;21.70;99.90
14057;DHT22;7103;54.300;10.180;2023-06-04T07:34:49;21.50;99.90
14057;DHT22;7103;54.300;10.180;2023-06-04T07:37:16;21.70;99.90
14057;DHT22;7103;54.300;10.180;2023-06-04T07:39:43;22.30;99.90
14057;DHT22;7103;54.300;10.180;2023-06-04T07:42:10;22.20;99.90
14057;DHT22;7103;54.300;10.180;2023-06-04T07:44:37;22.60;99.90
14057;DHT22;7103;54.300;10.180;2023-06-04T07:47:05;23.00;99.90
14057;DHT22;7103;54.300;10.180;2023-06-04T07:49:32;22.70;99.90
14057;DHT22;7103;54.300;10.180;2023-06-04T07:51:59;22.90;99.90
14057;DHT22;7103;54.300;10.180;2023-06-04T07:54:27;23.40;99.90
14057;DHT22;7103;54.300;10.180;2023-06-04T07:56:54;23.70;99.90
14057;DHT22;7103;54.300;10.180;2023-06-04T07:59:23;23.60;99.90
14057;DHT22;7103;54.300;10.180;2023-06-04T08:01:51;23.90;99.90
14057;DHT22;7103;54.300;10.180;2023-06-04T08:04:21;24.00;99.90
14057;DHT22;7103;54.300;10.180;2023-06-04T08:06:49;23.60;99.90
14057;DHT22;7103;54.300;10.180;2023-06-04T08:09:16;24.00;99.90
14057;DHT22;7103;54.300;10.180;2023-06-04T08:11:43;23.90;99.90
14057;DHT22;7103;54.300;10.180;2023-06-04T08:14:11;23.80;99.90
14057;DHT22;7103;54.300;10.180;2023-06-04T08:16:40;24.20;99.90
14057;DHT22;7103;54.300;10.180;2023-06-04T08:19:07;24.20;99.90
14057;DHT22;7103;54.300;10.180;2023-06-04T08:21:35;24.50;99.90
14057;DHT22;7103;54.300;10.180;2023-06-04T08:24:02;25.10;99.90
14057;DHT22;7103;54.300;10.180;2023-06-04T08:26:30;25.10;99.90
14057;DHT22;7103;54.300;10.180;2023-06-04T08:28:57;25.00;99.90
14057;DHT22;7103;54.300;10.180;2023-06-04T08:31:24;25.10;99.90
14057;DHT22;7103;54.300;10.180;2023-06-04T08:33:51;25.50;99.90
14057;DHT22;7103;54.300;10.180;2023-06-04T08:36:18;25.70;99.90
14057;DHT22;7103;54.300;10.180;2023-06-04T08:38:45;26.10;99.90
14057;DHT22;7103;54.300;10.180;2023-06-04T08:43:52;25.90;99.90
14057;DHT22;7103;54.300;10.180;2023-06-04T08:46:21;26.00;99.90
14057;DHT22;7103;54.300;10.180;2023-06-04T08:48:49;25.70;99.90
14057;DHT22;7103;54.300;10.180;2023-06-04T08:51:17;25.90;99.90
14057;DHT22;7103;54.300;10.180;2023-06-04T08:53:44;26.20;99.90
14057;DHT22;7103;54.300;10.180;2023-06-04T08:56:14;25.80;99.90
14057;DHT22;7103;54.300;10.180;2023-06-04T08:58:42;26.20;99.90
14057;DHT22;7103;54.300;10.180;2023-06-04T09:01:09;26.20;99.90
14057;DHT22;7103;54.300;10.180;2023-06-04T09:03:37;26.30;99.90
14057;DHT22;7103;54.300;10.180;2023-06-04T09:06:05;26.20;99.90
14057;DHT22;7103;54.300;10.180;2023-06-04T09:08:34;26.40;99.90
14057;DHT22;7103;54.300;10.180;2023-06-04T09:11:08;26.20;99.90
14057;DHT22;7103;54.300;10.180;2023-06-04T09:13:36;26.50;99.90
14057;DHT22;7103;54.300;10.180;2023-06-04T09:16:05;26.60;99.90
14057;DHT22;7103;54.300;10.180;2023-06-04T09:18:33;26.30;99.90
14057;DHT22;7103;54.300;10.180;2023-06-04T09:21:04;26.60;99.90
14057;DHT22;7103;54.300;10.180;2023-06-04T09:23:48;26.60;99.90
14057;DHT22;7103;54.300;10.180;2023-06-04T09:26:15;26.80;99.90
14057;DHT22;7103;54.300;10.180;2023-06-04T09:28:44;26.70;99.90
14057;DHT22;7103;54.300;10.180;2023-06-04T09:31:17;27.00;99.90
14057;DHT22;7103;54.300;10.180;2023-06-04T09:33:49;26.70;99.90
14057;DHT22;7103;54.300;10.180;2023-06-04T09:36:16;26.90;99.90
14057;DHT22;7103;54.300;10.180;2023-06-04T09:38:43;26.90;99.90
14057;DHT22;7103;54.300;10.180;2023-06-04T09:41:12;27.00;99.90
14057;DHT22;7103;54.300;10.180;2023-06-04T09:43:39;26.80;99.90
14057;DHT22;7103;54.300;10.180;2023-06-04T09:46:15;26.90;99.90
14057;DHT22;7103;54.300;10.180;2023-06-04T09:48:43;26.80;99.90
14057;DHT22;7103;54.300;10.180;2023-06-04T09:51:13;26.30;99.90
14057;DHT22;7103;54.300;10.180;2023-06-04T09:53:42;26.70;99.90
14057;DHT22;7103;54.300;10.180;2023-06-04T09:56:08;26.80;99.90
14057;DHT22;7103;54.300;10.180;2023-06-04T09:58:38;26.80;99.90
14057;DHT22;7103;54.300;10.180;2023-06-04T10:01:07;26.90;99.90
14057;DHT22;7103;54.300;10.180;2023-06-04T10:03:36;27.30;99.90
14057;DHT22;7103;54.300;10.180;2023-06-04T10:06:05;27.50;99.90
14057;DHT22;7103;54.300;10.180;2023-06-04T10:08:33;27.20;99.90
14057;DHT22;7103;54.300;10.180;2023-06-04T10:11:03;27.50;99.90
14057;DHT22;7103;54.300;10.180;2023-06-04T10:13:41;27.10;99.90
14057;DHT22;7103;54.300;10.180;2023-06-04T10:16:11;27.10;99.90
14057;DHT22;7103;54.300;10.180;2023-06-04T10:18:52;27.10;99.90
14057;DHT22;7103;54.300;10.180;2023-06-04T10:21:21;26.60;99.90
14057;DHT22;7103;54.300;10.180;2023-06-04T10:23:50;26.50;99.90
14057;DHT22;7103;54.300;10.180;2023-06-04T10:26:17;26.80;99.90
14057;DHT22;7103;54.300;10.180;2023-06-04T10:28:44;26.90;99.90
14057;DHT22;7103;54.300;10.180;2023-06-04T10:31:12;27.00;99.90
14057;DHT22;7103;54.300;10.180;2023-06-04T10:33:39;27.30;99.90
14057;DHT22;7103;54.300;10.180;2023-06-04T10:36:20;26.90;99.90
14057;DHT22;7103;54.300;10.180;2023-06-04T10:38:55;26.60;99.90
14057;DHT22;7103;54.300;10.180;2023-06-04T10:41:23;26.70;99.90
14057;DHT22;7103;54.300;10.180;2023-06-04T10:43:51;26.80;99.90
14057;DHT22;7103;54.300;10.180;2023-06-04T10:46:20;26.90;99.90
14057;DHT22;7103;54.300;10.180;2023-06-04T10:48:52;26.90;99.90
14057;DHT22;7103;54.300;10.180;2023-06-04T10:51:33;26.70;99.90
14057;DHT22;7103;54.300;10.180;2023-06-04T10:54:02;26.60;99.90
14057;DHT22;7103;54.300;10.180;2023-06-04T10:56:33;26.60;99.90
14057;DHT22;7103;54.300;10.180;2023-06-04T10:59:14;26.80;99.90
14057;DHT22;7103;54.300;10.180;2023-06-04T11:01:41;26.70;99.90
14057;DHT22;7103;54.300;10.180;2023-06-04T11:04:37;26.60;99.90
14057;DHT22;7103;54.300;10.180;2023-06-04T11:07:06;26.50;99.90
14057;DHT22;7103;54.300;10.180;2023-06-04T11:09:38;26.60;99.90
14057;DHT22;7103;54.300;10.180;2023-06-04T11:12:14;26.60;99.90
14057;DHT22;7103;54.300;10.180;2023-06-04T11:14:41;26.80;99.90
14057;DHT22;7103;54.300;10.180;2023-06-04T11:17:11;27.00;99.90
14057;DHT22;7103;54.300;10.180;2023-06-04T11:19:39;26.80;99.90
14057;DHT22;7103;54.300;10.180;2023-06-04T11:22:10;26.20;99.90
14057;DHT22;7103;54.300;10.180;2023-06-04T11:24:38;25.90;99.90
14057;DHT22;7103;54.300;10.180;2023-06-04T11:27:05;25.70;99.90
14057;DHT22;7103;54.300;10.180;2023-06-04T11:29:43;25.90;99.90
14057;DHT22;7103;54.300;10.180;2023-06-04T11:32:23;26.20;99.90
14057;DHT22;7103;54.300;10.180;2023-06-04T11:34:50;26.50;99.90
14057;DHT22;7103;54.300;10.180;2023-06-04T11:37:17;26.40;99.90
14057;DHT22;7103;54.300;10.180;2023-06-04T11:39:44;26.30;99.90
14057;DHT22;7103;54.300;10.180;2023-06-04T11:42:11;26.30;99.90
14057;DHT22;7103;54.300;10.180;2023-06-04T11:44:39;26.40;99.90
14057;DHT22;7103;54.300;10.180;2023-06-04T11:47:11;26.70;99.90
14057;DHT22;7103;54.300;10.180;2023-06-04T11:49:39;26.80;99.90
14057;DHT22;7103;54.300;10.180;2023-06-04T11:52:06;26.40;99.90
14057;DHT22;7103;54.300;10.180;2023-06-04T11:54:34;26.30;99.90
14057;DHT22;7103;54.300;10.180;2023-06-04T11:57:05;26.70;99.90
14057;DHT22;7103;54.300;10.180;2023-06-04T11:59:32;26.60;99.90
14057;DHT22;7103;54.300;10.180;2023-06-04T12:01:59;26.40;99.90
14057;DHT22;7103;54.300;10.180;2023-06-04T12:04:30;26.00;99.90
14057;DHT22;7103;54.300;10.180;2023-06-04T12:06:58;26.10;99.90
14057;DHT22;7103;54.300;10.180;2023-06-04T12:09:29;25.90;99.90
14057;DHT22;7103;54.300;10.180;2023-06-04T12:12:03;26.10;99.90
14057;DHT22;7103;54.300;10.180;2023-06-04T12:14:31;26.20;99.90
14057;DHT22;7103;54.300;10.180;2023-06-04T12:17:05;26.00;99.90
14057;DHT22;7103;54.300;10.180;2023-06-04T12:19:33;25.60;99.90
14057;DHT22;7103;54.300;10.180;2023-06-04T12:22:02;25.50;99.90
14057;DHT22;7103;54.300;10.180;2023-06-04T12:24:30;25.50;99.90
14057;DHT22;7103;54.300;10.180;2023-06-04T12:27:05;25.50;99.90
14057;DHT22;7103;54.300;10.180;2023-06-04T12:29:33;25.60;99.90
14057;DHT22;7103;54.300;10.180;2023-06-04T12:32:08;25.80;99.90
14057;DHT22;7103;54.300;10.180;2023-06-04T12:34:41;25.50;99.90
14057;DHT22;7103;54.300;10.180;2023-06-04T12:37:08;25.50;99.90
14057;DHT22;7103;54.300;10.180;2023-06-04T12:39:36;25.70;99.90
14057;DHT22;7103;54.300;10.180;2023-06-04T12:42:06;25.70;99.90
14057;DHT22;7103;54.300;10.180;2023-06-04T12:44:37;25.80;99.90
14057;DHT22;7103;54.300;10.180;2023-06-04T12:47:05;25.60;99.90
14057;DHT22;7103;54.300;10.180;2023-06-04T12:49:32;25.30;99.90
14057;DHT22;7103;54.300;10.180;2023-06-04T12:51:59;25.50;99.90
14057;DHT22;7103;54.300;10.180;2023-06-04T12:54:26;25.50;99.90
14057;DHT22;7103;54.300;10.180;2023-06-04T12:56:56;25.30;99.90
14057;DHT22;7103;54.300;10.180;2023-06-04T12:59:27;24.80;99.90
14057;DHT22;7103;54.300;10.180;2023-06-04T13:01:55;24.40;99.90
14057;DHT22;7103;54.300;10.180;2023-06-04T13:04:23;24.00;99.90
14057;DHT22;7103;54.300;10.180;2023-06-04T13:06:51;23.80;99.90
14057;DHT22;7103;54.300;10.180;2023-06-04T13:09:26;23.40;99.90
14057;DHT22;7103;54.300;10.180;2023-06-04T13:11:55;23.50;99.90
14057;DHT22;7103;54.300;10.180;2023-06-04T13:14:22;23.60;99.90
14057;DHT22;7103;54.300;10.180;2023-06-04T13:16:48;24.00;99.90
14057;DHT22;7103;54.300;10.180;2023-06-04T13:19:18;24.40;99.90
14057;DHT22;7103;54.300;10.180;2023-06-04T13:21:47;24.20;99.90
14057;DHT22;7103;54.300;10.180;2023-06-04T13:24:14;23.90;99.90
14057;DHT22;7103;54.300;10.180;2023-06-04T13:26:42;23.50;99.90
14057;DHT22;7103;54.300;10.180;2023-06-04T13:29:09;23.20;99.90
14057;DHT22;7103;54.300;10.180;2023-06-04T13:31:37;22.90;99.90
14057;DHT22;7103;54.300;10.180;2023-06-04T13:34:06;22.80;99.90
14057;DHT22;7103;54.300;10.180;2023-06-04T13:36:54;23.00;99.90
14057;DHT22;7103;54.300;10.180;2023-06-04T13:39:21;23.40;99.90
14057;DHT22;7103;54.300;10.180;2023-06-04T13:41:49;23.60;99.90
14057;DHT22;7103;54.300;10.180;2023-06-04T13:44:16;23.40;99.90
14057;DHT22;7103;54.300;10.180;2023-06-04T13:46:43;23.60;99.90
14057;DHT22;7103;54.300;10.180;2023-06-04T13:49:09;23.80;99.90
14057;DHT22;7103;54.300;10.180;2023-06-04T13:51:36;23.70;99.90
14057;DHT22;7103;54.300;10.180;2023-06-04T13:54:03;23.60;99.90
14057;DHT22;7103;54.300;10.180;2023-06-04T13:56:30;23.60;99.90
14057;DHT22;7103;54.300;10.180;2023-06-04T13:58:57;23.40;99.90
14057;DHT22;7103;54.300;10.180;2023-06-04T14:01:24;22.80;99.90
14057;DHT22;7103;54.300;10.180;2023-06-04T14:03:51;22.60;99.90
14057;DHT22;7103;54.300;10.180;2023-06-04T14:06:19;22.60;99.90
14057;DHT22;7103;54.300;10.180;2023-06-04T14:08:46;22.30;99.90
14057;DHT22;7103;54.300;10.180;2023-06-04T14:11:13;21.80;99.90
14057;DHT22;7103;54.300;10.180;2023-06-04T14:13:40;21.50;99.90
14057;DHT22;7103;54.300;10.180;2023-06-04T14:16:11;21.40;99.90
14057;DHT22;7103;54.300;10.180;2023-06-04T14:18:38;21.40;99.90
14057;DHT22;7103;54.300;10.180;2023-06-04T14:21:05;21.60;99.90
14057;DHT22;7103;54.300;10.180;2023-06-04T14:23:32;21.60;99.90
14057;DHT22;7103;54.300;10.180;2023-06-04T14:25:59;21.40;99.90
14057;DHT22;7103;54.300;10.180;2023-06-04T14:28:27;21.40;99.90
14057;DHT22;7103;54.300;10.180;2023-06-04T14:30:53;21.20;99.90
14057;DHT22;7103;54.300;10.180;2023-06-04T14:33:20;21.30;99.90
14057;DHT22;7103;54.300;10.180;2023-06-04T14:35:47;21.30;99.90
14057;DHT22;7103;54.300;10.180;2023-06-04T14:38:14;21.40;99.90
14057;DHT22;7103;54.300;10.180;2023-06-04T14:40:42;21.30;99.90
14057;DHT22;7103;54.300;10.180;2023-06-04T14:43:13;21.10;99.90
14057;DHT22;7103;54.300;10.180;2023-06-04T14:45:40;20.80;99.90
14057;DHT22;7103;54.300;10.180;2023-06-04T14:48:07;20.90;99.90
14057;DHT22;7103;54.300;10.180;2023-06-04T14:50:37;21.00;99.90
14057;DHT22;7103;54.300;10.180;2023-06-04T14:53:04;21.10;99.90
14057;DHT22;7103;54.300;10.180;2023-06-04T14:55:34;21.20;99.90
14057;DHT22;7103;54.300;10.180;2023-06-04T14:58:01;20.70;99.90
14057;DHT22;7103;54.300;10.180;2023-06-04T15:00:29;20.50;99.90
14057;DHT22;7103;54.300;10.180;2023-06-04T15:02:57;20.70;99.90
14057;DHT22;7103;54.300;10.180;2023-06-04T15:05:24;21.00;99.90
14057;DHT22;7103;54.300;10.180;2023-06-04T15:07:52;20.90;99.90
14057;DHT22;7103;54.300;10.180;2023-06-04T15:10:19;20.70;99.90
14057;DHT22;7103;54.300;10.180;2023-06-04T15:12:46;20.70;99.90
14057;DHT22;7103;54.300;10.180;2023-06-04T15:15:12;20.80;99.90
14057;DHT22;7103;54.300;10.180;2023-06-04T15:17:39;20.60;99.90
14057;DHT22;7103;54.300;10.180;2023-06-04T15:20:07;20.70;99.90
14057;DHT22;7103;54.300;10.180;2023-06-04T15:22:34;20.30;99.90
14057;DHT22;7103;54.300;10.180;2023-06-04T15:25:01;20.20;99.90
14057;DHT22;7103;54.300;10.180;2023-06-04T15:27:28;19.80;99.90
14057;DHT22;7103;54.300;10.180;2023-06-04T15:29:55;20.00;99.90
14057;DHT22;7103;54.300;10.180;2023-06-04T15:32:22;20.00;99.90
14057;DHT22;7103;54.300;10.180;2023-06-04T15:34:49;20.10;99.90
14057;DHT22;7103;54.300;10.180;2023-06-04T15:37:17;20.20;99.90
14057;DHT22;7103;54.300;10.180;2023-06-04T15:39:44;20.40;99.90
14057;DHT22;7103;54.300;10.180;2023-06-04T15:42:11;20.20;99.90
14057;DHT22;7103;54.300;10.180;2023-06-04T15:44:38;20.20;99.90
14057;DHT22;7103;54.300;10.180;2023-06-04T15:47:05;20.30;99.90
14057;DHT22;7103;54.300;10.180;2023-06-04T15:49:32;20.30;99.90
14057;DHT22;7103;54.300;10.180;2023-06-04T15:51:59;20.20;99.90
14057;DHT22;7103;54.300;10.180;2023-06-04T15:54:26;20.20;99.90
14057;DHT22;7103;54.300;10.180;2023-06-04T15:57:11;20.10;99.90
14057;DHT22;7103;54.300;10.180;2023-06-04T15:59:38;20.00;99.90
14057;DHT22;7103;54.300;10.180;2023-06-04T16:02:05;19.90;99.90
14057;DHT22;7103;54.300;10.180;2023-06-04T16:04:33;19.90;99.90